ROMMA est une association bénévole à but non lucratif. Votre soutien est indispensable : ADHERER à ROMMA ou FAIRE un DON

Crempigny - (74, Haute-Savoie)

Albanais-Montagne des Princes (500 m)   Longitude: 05° 54' 5" E   Latitude: 45° 57' 0" N Station partenaire n°10
 

Détail journalier du     <<     >>

Température Precipitation Humidité Pression Vent Dir Rafale Dir. rafale Ensol. 20 cm au dessus du sol
Heure (°C) (mm) (%) (hPa) (km/h) (km/h) (min) (°C)
01:00 3.909710223NO6NO03.3
02:00 4.109810234N8NO03.3
03:00 3.909810232NNO5NNO03.9
04:00 4.209810233NNO5NNO03.9
05:00 4.109810223NO6NNO03.9
06:00 4.009910221NO5NO03.9
07:00 3.609910221NO6NO03.3
08:00 2.609810222NO6NNO02.2
09:00 2.309910221NNE5NNE5
10:00 2.709910221SO5NNE15
11:00 4.3010010221SO5SO15
12:00 6.2010010224SO16N55
13:00 6.409610219N24NE20
14:00 7.2091102011NNE27NNE408.3
15:00 6.309210208NNO19NNE06.7
16:00 6.109110197NNO13NO05.6
17:00 5.709210197NO16NNE05.6
18:00 5.509210197NNO21NE05.0
19:00 5.309210197N21N05.0
20:00 5.209210197N21N05.0
21:00 4.909210188NE23N04.4
22:00 5.009310186NNE21NNE04.4
23:00 5.209110188NNE31N05.0
minuit 5.009110185NE16N04.4

Graphique du 30-11-2019

 

Serveur OMMA